createdAt,value
2018-05-12T00:00:04.320Z,27.13
2018-05-12T00:01:05.429Z,27.23
2018-05-12T00:02:06.488Z,31.87
2018-05-12T00:03:07.564Z,24.92
2018-05-12T00:04:08.636Z,30.60
2018-05-12T00:05:10.464Z,26.30
2018-05-12T00:06:11.550Z,28.87
2018-05-12T00:07:12.622Z,28.60
2018-05-12T00:08:13.681Z,27.75
2018-05-12T00:09:15.499Z,24.92
2018-05-12T00:10:16.568Z,23.83
2018-05-12T00:11:18.367Z,26.15
2018-05-12T00:12:19.434Z,27.70
2018-05-12T00:13:20.483Z,23.05
2018-05-12T00:14:21.563Z,29.10
2018-05-12T00:15:22.640Z,23.85
2018-05-12T00:16:23.689Z,29.40
2018-05-12T00:17:24.734Z,26.52
2018-05-12T00:18:25.789Z,31.87
2018-05-12T00:19:26.873Z,27.25
2018-05-12T00:20:28.701Z,24.05
2018-05-12T00:21:29.766Z,24.87
2018-05-12T00:22:30.838Z,30.00
2018-05-12T00:23:31.910Z,25.20
2018-05-12T00:24:32.971Z,28.67
2018-05-12T00:25:34.033Z,25.33
2018-05-12T00:26:35.091Z,28.20
2018-05-12T00:27:36.156Z,24.45
2018-05-12T00:28:37.951Z,28.30
2018-05-12T00:29:39.047Z,26.30
2018-05-12T00:30:40.113Z,25.33
2018-05-12T00:31:41.167Z,29.35
2018-05-12T00:32:42.216Z,25.83
2018-05-12T00:33:43.267Z,26.58
2018-05-12T00:34:44.347Z,28.40
2018-05-12T00:35:45.420Z,24.37
2018-05-12T00:36:46.500Z,26.70
2018-05-12T00:37:47.581Z,26.33
2018-05-12T00:38:49.372Z,24.27
2018-05-12T00:39:50.440Z,30.33
2018-05-12T00:40:51.511Z,28.00
2018-05-12T00:41:52.576Z,25.48
2018-05-12T00:42:53.660Z,26.12
2018-05-12T00:43:54.699Z,27.23
2018-05-12T00:44:56.526Z,28.12
2018-05-12T00:45:57.583Z,30.23
2018-05-12T00:46:58.663Z,28.23
2018-05-12T00:47:59.737Z,29.73
2018-05-12T00:49:00.828Z,29.45
2018-05-12T00:50:01.903Z,28.73
2018-05-12T00:51:02.966Z,31.42
2018-05-12T00:52:04.054Z,29.08
2018-05-12T00:53:05.859Z,25.48
2018-05-12T00:54:06.915Z,27.20
2018-05-12T00:55:07.998Z,34.65
2018-05-12T00:56:09.068Z,31.87
2018-05-12T00:57:10.143Z,31.73
2018-05-12T00:58:11.211Z,36.08
2018-05-12T00:59:12.267Z,33.85
2018-05-12T01:00:13.337Z,39.65
2018-05-12T01:01:14.419Z,35.00
2018-05-12T01:02:15.493Z,35.33
2018-05-12T01:03:16.551Z,31.80
2018-05-12T01:04:17.659Z,32.45
2018-05-12T01:05:19.500Z,33.35
2018-05-12T01:06:20.555Z,33.30
2018-05-12T01:07:21.638Z,34.00
2018-05-12T01:08:22.735Z,27.70
2018-05-12T01:09:23.810Z,28.58
2018-05-12T01:10:24.879Z,30.27
2018-05-12T01:11:25.962Z,26.52
2018-05-12T01:12:27.045Z,34.72
2018-05-12T01:13:28.133Z,31.02
2018-05-12T01:14:29.199Z,31.67
2018-05-12T01:15:31.019Z,32.80
2018-05-12T01:16:32.085Z,30.77
2018-05-12T01:17:33.163Z,34.47
2018-05-12T01:18:34.235Z,31.40
2018-05-12T01:19:36.054Z,29.55
2018-05-12T01:20:37.128Z,30.33
2018-05-12T01:21:38.206Z,35.25
2018-05-12T01:22:39.287Z,32.50
2018-05-12T01:23:41.092Z,30.08
2018-05-12T01:24:42.172Z,32.38
2018-05-12T01:25:43.234Z,30.37
2018-05-12T01:26:44.319Z,32.20
2018-05-12T01:27:45.400Z,32.13
2018-05-12T01:28:46.451Z,36.15
2018-05-12T01:29:47.510Z,33.28
2018-05-12T01:30:48.579Z,32.08
2018-05-12T01:31:49.670Z,33.55
2018-05-12T01:32:50.739Z,30.33
2018-05-12T01:33:51.795Z,32.38
2018-05-12T01:34:52.878Z,34.50
2018-05-12T01:35:53.942Z,36.55
2018-05-12T01:36:54.999Z,29.27
2018-05-12T01:37:56.063Z,37.78
2018-05-12T01:38:57.148Z,32.13
2018-05-12T01:39:58.203Z,32.63
2018-05-12T01:40:59.291Z,29.98
2018-05-12T01:42:00.372Z,31.48
2018-05-12T01:43:01.444Z,34.55
2018-05-12T01:44:02.532Z,29.17
2018-05-12T01:45:03.608Z,30.35
2018-05-12T01:46:04.678Z,33.92
2018-05-12T01:47:05.768Z,35.25
2018-05-12T01:48:06.855Z,30.48
2018-05-12T01:49:07.931Z,35.47
2018-05-12T01:50:08.980Z,33.53
2018-05-12T01:51:10.806Z,32.10
2018-05-12T01:52:11.872Z,31.15
2018-05-12T01:53:12.960Z,31.25
2018-05-12T01:54:14.036Z,36.58
2018-05-12T01:55:15.149Z,33.08
2018-05-12T01:56:16.262Z,29.65
2018-05-12T01:57:17.345Z,42.75
2018-05-12T01:58:18.414Z,30.30
2018-05-12T01:59:19.480Z,36.03
2018-05-12T02:00:21.299Z,33.05
2018-05-12T02:01:22.370Z,31.00
2018-05-12T02:02:24.227Z,35.67
2018-05-12T02:03:25.312Z,33.90
2018-05-12T02:04:26.379Z,31.23
2018-05-12T02:05:28.190Z,31.60
2018-05-12T02:06:29.282Z,34.40
2018-05-12T02:07:30.360Z,33.42
2018-05-12T02:08:31.416Z,28.20
2018-05-12T02:09:33.207Z,36.70
2018-05-12T02:10:34.271Z,34.10
2018-05-12T02:11:35.350Z,34.67
2018-05-12T02:12:36.420Z,33.95
2018-05-12T02:13:37.483Z,32.03
2018-05-12T02:14:38.558Z,36.67
2018-05-12T02:15:39.618Z,31.73
2018-05-12T02:16:40.680Z,39.17
2018-05-12T02:17:41.776Z,31.33
2018-05-12T02:18:42.836Z,30.73
2018-05-12T02:19:43.916Z,31.83
2018-05-12T02:20:44.967Z,32.03
2018-05-12T02:21:46.044Z,37.38
2018-05-12T02:22:47.896Z,30.80
2018-05-12T02:23:48.957Z,31.15
2018-05-12T02:24:50.035Z,32.58
2018-05-12T02:25:51.120Z,33.97
2018-05-12T02:26:52.187Z,32.50
2018-05-12T02:27:53.248Z,30.70
2018-05-12T02:28:54.319Z,32.88
2018-05-12T02:29:55.394Z,32.05
2018-05-12T02:30:56.486Z,35.05
2018-05-12T02:31:57.571Z,33.58
2018-05-12T02:32:58.629Z,31.85
2018-05-12T02:34:00.437Z,36.35
2018-05-12T02:35:01.493Z,36.70
2018-05-12T02:36:02.572Z,32.35
2018-05-12T02:37:03.651Z,35.83
2018-05-12T02:38:04.724Z,34.25
2018-05-12T02:39:05.800Z,32.13
2018-05-12T02:40:06.865Z,31.50
2018-05-12T02:41:07.935Z,36.50
2018-05-12T02:42:09.015Z,33.67
2018-05-12T02:43:10.105Z,34.95
2018-05-12T02:44:11.163Z,38.05
2018-05-12T02:45:12.271Z,34.22
2018-05-12T02:46:14.079Z,37.83
2018-05-12T02:47:15.889Z,35.88
2018-05-12T02:48:16.936Z,36.80
2018-05-12T02:49:18.022Z,35.13
2018-05-12T02:50:19.083Z,38.38
2018-05-12T02:51:20.155Z,36.10
2018-05-12T02:52:21.243Z,39.17
2018-05-12T02:53:22.342Z,36.28
2018-05-12T02:54:23.415Z,36.38
2018-05-12T02:55:24.500Z,38.17
2018-05-12T02:56:25.598Z,40.20
2018-05-12T02:57:26.673Z,36.10
2018-05-12T02:58:27.759Z,37.65
2018-05-12T02:59:28.829Z,34.95
2018-05-12T03:00:30.664Z,33.10
2018-05-12T03:01:31.727Z,33.13
2018-05-12T03:02:32.786Z,35.30
2018-05-12T03:03:33.848Z,33.50
2018-05-12T03:04:34.928Z,34.30
2018-05-12T03:05:35.990Z,31.75
2018-05-12T03:06:37.063Z,37.92
2018-05-12T03:07:38.158Z,33.72
2018-05-12T03:08:39.227Z,34.67
2018-05-12T03:09:40.308Z,37.03
2018-05-12T03:10:41.363Z,29.90
2018-05-12T03:11:42.426Z,32.28
2018-05-12T03:12:43.503Z,32.88
2018-05-12T03:13:44.583Z,33.38
2018-05-12T03:14:45.680Z,33.58
2018-05-12T03:15:46.748Z,36.47
2018-05-12T03:16:48.563Z,31.05
2018-05-12T03:17:49.630Z,31.35
2018-05-12T03:18:50.695Z,31.00
2018-05-12T03:19:51.755Z,32.60
2018-05-12T03:20:52.828Z,36.20
2018-05-12T03:21:53.907Z,36.67
2018-05-12T03:22:55.003Z,33.03
2018-05-12T03:23:56.086Z,32.42
2018-05-12T03:24:57.148Z,35.58
2018-05-12T03:25:58.971Z,34.92
2018-05-12T03:27:00.038Z,32.95
2018-05-12T03:28:01.852Z,38.30
2018-05-12T03:29:02.927Z,32.90
2018-05-12T03:30:04.007Z,31.85
2018-05-12T03:31:05.084Z,32.03
2018-05-12T03:32:06.161Z,36.85
2018-05-12T03:33:07.254Z,37.08
2018-05-12T03:34:08.326Z,33.90
2018-05-12T03:35:09.403Z,34.80
2018-05-12T03:36:11.209Z,35.65
2018-05-12T03:37:12.266Z,34.00
2018-05-12T03:38:13.348Z,35.00
2018-05-12T03:39:14.412Z,35.85
2018-05-12T03:40:15.477Z,36.75
2018-05-12T03:41:16.565Z,36.85
2018-05-12T03:42:17.638Z,36.20
2018-05-12T03:43:19.478Z,37.53
2018-05-12T03:44:20.555Z,34.47
2018-05-12T03:45:21.666Z,36.47
2018-05-12T03:46:23.465Z,31.55
2018-05-12T03:47:24.528Z,33.00
2018-05-12T03:48:25.590Z,32.08
2018-05-12T03:49:26.655Z,33.38
2018-05-12T03:50:27.726Z,33.25
2018-05-12T03:51:28.811Z,35.78
2018-05-12T03:52:29.890Z,39.47
2018-05-12T03:53:30.983Z,36.90
2018-05-12T03:54:32.061Z,39.70
2018-05-12T03:55:33.159Z,33.38
2018-05-12T03:56:34.224Z,30.25
2018-05-12T03:57:35.322Z,36.33
2018-05-12T03:58:36.415Z,31.75
2018-05-12T03:59:37.479Z,39.22
2018-05-12T04:00:38.543Z,38.72
2018-05-12T04:01:39.627Z,37.83
2018-05-12T04:02:40.717Z,39.63
2018-05-12T04:03:41.796Z,35.22
2018-05-12T04:04:55.147Z,33.78
2018-05-12T04:06:09.238Z,32.03
2018-05-12T04:07:22.556Z,37.65
2018-05-12T04:08:37.427Z,32.88
2018-05-12T04:09:50.826Z,34.30
2018-05-12T04:11:04.243Z,38.97
2018-05-12T04:12:17.719Z,32.35
2018-05-12T04:13:18.815Z,33.45
2018-05-12T04:14:19.892Z,30.73
2018-05-12T04:15:20.968Z,31.83
2018-05-12T04:16:22.076Z,30.15
2018-05-12T04:17:23.116Z,34.17
2018-05-12T04:18:24.228Z,32.70
2018-05-12T04:19:25.295Z,35.38
2018-05-12T04:20:26.368Z,39.00
2018-05-12T04:21:27.430Z,35.78
2018-05-12T04:22:28.498Z,34.53
2018-05-12T04:23:29.573Z,35.53
2018-05-12T04:24:30.643Z,36.15
2018-05-12T04:25:32.451Z,32.55
2018-05-12T04:26:33.533Z,35.92
2018-05-12T04:27:34.592Z,34.42
2018-05-12T04:28:35.670Z,31.52
2018-05-12T04:29:36.737Z,35.85
2018-05-12T04:30:37.801Z,33.42
2018-05-12T04:31:38.886Z,31.40
2018-05-12T04:32:39.938Z,33.15
2018-05-12T04:33:40.999Z,39.15
2018-05-12T04:34:42.085Z,35.97
2018-05-12T04:35:43.163Z,35.08
2018-05-12T04:36:44.214Z,28.60
2018-05-12T04:37:45.279Z,34.63
2018-05-12T04:38:46.340Z,35.75
2018-05-12T04:39:48.165Z,34.78
2018-05-12T04:40:49.972Z,33.22
2018-05-12T04:41:51.032Z,33.63
2018-05-12T04:42:52.086Z,34.15
2018-05-12T04:43:53.154Z,33.97
2018-05-12T04:44:54.236Z,35.53
2018-05-12T04:45:55.308Z,28.75
2018-05-12T04:46:56.362Z,39.28
2018-05-12T04:47:57.451Z,31.20
2018-05-12T04:48:58.563Z,36.53
2018-05-12T04:50:00.363Z,38.75
2018-05-12T04:51:01.419Z,36.15
2018-05-12T04:52:02.508Z,37.03
2018-05-12T04:53:03.604Z,41.55
2018-05-12T04:54:04.690Z,36.53
2018-05-12T04:55:06.515Z,37.88
2018-05-12T04:56:07.748Z,37.78
2018-05-12T04:57:09.619Z,35.05
2018-05-12T04:58:10.752Z,37.33
2018-05-12T04:59:11.847Z,36.80
2018-05-12T05:00:12.987Z,40.25
2018-05-12T05:01:14.155Z,35.83
2018-05-12T05:02:15.251Z,36.80
2018-05-12T05:03:16.356Z,35.55
2018-05-12T05:04:17.470Z,40.97
2018-05-12T05:05:18.651Z,37.78
2018-05-12T05:06:19.744Z,37.13
2018-05-12T05:07:20.876Z,36.03
2018-05-12T05:08:21.954Z,31.85
2018-05-12T05:09:23.030Z,35.53
2018-05-12T05:10:24.111Z,40.05
2018-05-12T05:11:25.916Z,40.97
2018-05-12T05:12:27.004Z,39.08
2018-05-12T05:13:28.091Z,43.33
2018-05-12T05:14:29.159Z,37.55
2018-05-12T05:15:30.235Z,37.10
2018-05-12T05:16:32.038Z,41.95
2018-05-12T05:17:33.833Z,34.35
2018-05-12T05:18:34.904Z,35.97
2018-05-12T05:19:35.984Z,37.58
2018-05-12T05:20:37.808Z,32.78
2018-05-12T05:21:38.880Z,31.20
2018-05-12T05:22:40.684Z,37.20
2018-05-12T05:23:41.779Z,42.08
2018-05-12T05:24:42.858Z,33.83
2018-05-12T05:25:43.939Z,37.05
2018-05-12T05:26:45.019Z,34.67
2018-05-12T05:27:46.087Z,36.55
2018-05-12T05:28:47.133Z,39.40
2018-05-12T05:29:48.211Z,42.53
2018-05-12T05:30:49.294Z,39.55
2018-05-12T05:31:50.361Z,37.85
2018-05-12T05:32:51.436Z,41.58
2018-05-12T05:33:52.519Z,40.85
2018-05-12T05:34:53.586Z,48.28
2018-05-12T05:35:54.646Z,43.15
2018-05-12T05:36:55.722Z,43.50
2018-05-12T05:37:56.787Z,39.70
2018-05-12T05:38:57.886Z,40.08
2018-05-12T05:39:59.699Z,41.90
2018-05-12T05:41:00.751Z,41.92
2018-05-12T05:42:01.811Z,41.47
2018-05-12T05:43:02.928Z,36.40
2018-05-12T05:44:04.760Z,33.22
2018-05-12T05:45:05.818Z,31.83
2018-05-12T05:46:06.878Z,39.90
2018-05-12T05:47:07.950Z,38.80
2018-05-12T05:48:09.022Z,36.40
2018-05-12T05:49:10.832Z,34.90
2018-05-12T05:50:11.962Z,37.72
2018-05-12T05:51:13.024Z,37.20
2018-05-12T05:52:14.826Z,36.78
2018-05-12T05:53:15.891Z,40.08
2018-05-12T05:54:16.958Z,37.60
2018-05-12T05:55:18.025Z,35.53
2018-05-12T05:56:19.120Z,35.03
2018-05-12T05:57:20.204Z,43.25
2018-05-12T05:58:21.276Z,35.45
2018-05-12T05:59:22.351Z,39.80
2018-05-12T06:00:23.514Z,37.67
2018-05-12T06:01:24.610Z,43.87
2018-05-12T06:02:25.684Z,33.42
2018-05-12T06:03:26.747Z,41.80
2018-05-12T06:04:27.827Z,41.05
2018-05-12T06:05:28.905Z,37.38
2018-05-12T06:06:29.983Z,36.67
2018-05-12T06:07:31.050Z,32.17
2018-05-12T06:08:32.111Z,36.03
2018-05-12T06:09:33.191Z,36.47
2018-05-12T06:10:34.270Z,35.72
2018-05-12T06:11:35.387Z,39.03
2018-05-12T06:12:37.188Z,39.13
2018-05-12T06:13:38.259Z,35.03
2018-05-12T06:14:40.175Z,36.40
2018-05-12T06:15:41.249Z,37.65
2018-05-12T06:16:42.368Z,34.63
2018-05-12T06:17:43.486Z,38.38
2018-05-12T06:18:44.597Z,41.53
2018-05-12T06:19:45.695Z,40.05
2018-05-12T06:20:46.831Z,37.20
2018-05-12T06:21:47.931Z,45.92
2018-05-12T06:22:49.070Z,41.92
2018-05-12T06:23:51.832Z,43.03
2018-05-12T06:24:52.957Z,36.25
2018-05-12T06:25:54.047Z,38.85
2018-05-12T06:26:55.118Z,37.22
2018-05-12T06:27:56.197Z,36.28
2018-05-12T06:28:57.317Z,40.88
2018-05-12T06:29:59.131Z,38.03
2018-05-12T06:31:00.224Z,41.15
2018-05-12T06:32:02.047Z,35.67
2018-05-12T06:33:03.893Z,36.53
2018-05-12T06:34:05.697Z,34.80
2018-05-12T06:35:06.763Z,35.33
2018-05-12T06:36:08.020Z,35.85
2018-05-12T06:37:09.155Z,38.70
2018-05-12T06:38:10.232Z,37.25
2018-05-12T06:39:11.315Z,40.28
2018-05-12T06:40:13.120Z,33.75
2018-05-12T06:41:14.199Z,42.72
2018-05-12T06:42:15.283Z,46.15
2018-05-12T06:43:16.396Z,40.55
2018-05-12T06:44:17.486Z,39.47
2018-05-12T06:45:19.515Z,39.42
2018-05-12T06:46:20.684Z,39.25
2018-05-12T06:47:22.495Z,40.40
2018-05-12T06:48:23.569Z,37.17
2018-05-12T06:49:25.375Z,37.53
2018-05-12T06:50:26.472Z,39.78
2018-05-12T06:51:27.567Z,36.38
2018-05-12T06:52:29.639Z,36.33
2018-05-12T06:53:31.455Z,40.63
2018-05-12T06:54:32.538Z,36.85
2018-05-12T06:55:33.599Z,42.47
2018-05-12T06:56:34.679Z,34.50
2018-05-12T06:57:36.480Z,40.33
2018-05-12T06:58:37.575Z,35.88
2018-05-12T06:59:38.639Z,36.42
2018-05-12T07:00:39.688Z,46.53
2018-05-12T07:01:40.798Z,33.33
2018-05-12T07:02:41.853Z,40.38
2018-05-12T07:03:42.911Z,37.03
2018-05-12T07:04:43.975Z,38.03
2018-05-12T07:05:45.038Z,37.22
2018-05-12T07:06:46.116Z,31.50
2018-05-12T07:07:47.920Z,38.80
2018-05-12T07:08:48.999Z,28.58
2018-05-12T07:09:50.818Z,34.35
2018-05-12T07:10:51.881Z,29.65
2018-05-12T07:11:53.695Z,37.00
2018-05-12T07:12:54.756Z,31.65
2018-05-12T07:13:55.839Z,34.00
2018-05-12T07:14:56.907Z,36.25
2018-05-12T07:15:57.991Z,31.58
2018-05-12T07:16:59.071Z,39.78
2018-05-12T07:18:00.123Z,40.50
2018-05-12T07:19:01.950Z,40.15
2018-05-12T07:20:03.051Z,36.13
2018-05-12T07:21:04.131Z,41.20
2018-05-12T07:22:05.978Z,36.22
2018-05-12T07:23:07.044Z,35.55
2018-05-12T07:24:08.207Z,35.40
2018-05-12T07:25:09.195Z,34.92
2018-05-12T07:26:10.271Z,32.17
2018-05-12T07:27:11.359Z,30.42
2018-05-12T07:28:12.443Z,36.35
2018-05-12T07:29:13.507Z,38.20
2018-05-12T07:30:14.579Z,36.58
2018-05-12T07:31:15.646Z,36.55
2018-05-12T07:32:16.768Z,38.65
2018-05-12T07:33:17.819Z,30.30
2018-05-12T07:34:18.888Z,32.08
2018-05-12T07:35:19.938Z,35.80
2018-05-12T07:36:21.067Z,34.00
2018-05-12T07:37:22.131Z,31.65
2018-05-12T07:38:23.196Z,26.25
2018-05-12T07:40:16.893Z,29.27
2018-05-12T07:41:18.012Z,36.42
2018-05-12T07:42:19.132Z,32.25
2018-05-12T07:43:20.949Z,29.33
2018-05-12T07:44:22.031Z,29.40
2018-05-12T07:45:23.102Z,34.40
2018-05-12T07:46:24.191Z,29.23
2018-05-12T07:47:25.995Z,34.55
2018-05-12T07:48:27.069Z,39.15
2018-05-12T07:49:28.863Z,35.85
2018-05-12T07:50:29.918Z,35.60
2018-05-12T07:51:31.808Z,31.00
2018-05-12T07:52:32.868Z,29.63
2018-05-12T07:53:33.937Z,32.47
2018-05-12T07:54:35.783Z,32.42
2018-05-12T07:55:36.839Z,27.98
2018-05-12T07:56:38.646Z,31.75
2018-05-12T07:57:39.698Z,29.40
2018-05-12T07:58:40.775Z,28.62
2018-05-12T07:59:41.843Z,28.85
2018-05-12T08:00:42.927Z,28.38
2018-05-12T08:01:44.024Z,32.10
2018-05-12T08:02:45.128Z,33.83
2018-05-12T08:03:46.222Z,33.80
2018-05-12T08:04:48.027Z,30.75
2018-05-12T08:05:49.087Z,33.05
2018-05-12T08:06:50.903Z,30.58
2018-05-12T08:07:51.988Z,27.65
2018-05-12T08:08:53.056Z,34.05
2018-05-12T08:09:54.107Z,30.33
2018-05-12T08:10:55.180Z,36.10
2018-05-12T08:11:57.024Z,32.13
2018-05-12T08:12:58.139Z,32.10
2018-05-12T08:13:59.199Z,28.65
2018-05-12T08:15:00.279Z,31.00
2018-05-12T08:16:01.378Z,27.73
2018-05-12T08:17:02.475Z,33.30
2018-05-12T08:18:03.871Z,26.90
2018-05-12T08:19:05.034Z,29.75
2018-05-12T08:20:06.086Z,35.58
2018-05-12T08:21:07.163Z,28.27
2018-05-12T08:22:08.221Z,32.10
2018-05-12T08:23:09.305Z,29.48
2018-05-12T08:24:10.372Z,33.33
2018-05-12T08:25:11.445Z,28.17
2018-05-12T08:26:13.282Z,31.77
2018-05-12T08:27:14.352Z,32.67
2018-05-12T08:28:15.430Z,30.65
2018-05-12T08:29:16.499Z,32.17
2018-05-12T08:30:17.561Z,29.35
2018-05-12T08:31:18.617Z,29.65
2018-05-12T08:32:19.686Z,28.10
2018-05-12T08:33:20.791Z,33.13
2018-05-12T08:34:21.923Z,31.17
2018-05-12T08:35:23.088Z,32.85
2018-05-12T08:36:24.349Z,33.50
2018-05-12T08:37:25.517Z,35.95
2018-05-12T08:38:26.615Z,30.40
2018-05-12T08:39:27.748Z,30.73
2018-05-12T08:40:29.195Z,38.28
2018-05-12T08:41:30.251Z,37.70
2018-05-12T08:42:31.465Z,32.75
2018-05-12T08:43:33.704Z,30.42
2018-05-12T08:44:34.849Z,28.38
2018-05-12T08:45:36.227Z,27.05
2018-05-12T08:46:37.443Z,29.77
2018-05-12T08:47:38.499Z,27.65
2018-05-12T08:48:39.564Z,30.27
2018-05-12T08:49:40.625Z,29.25
2018-05-12T08:50:41.702Z,31.85
2018-05-12T08:51:42.785Z,35.50
2018-05-12T08:52:43.863Z,34.05
2018-05-12T08:53:44.948Z,30.73
2018-05-12T08:54:46.001Z,31.25
2018-05-12T08:55:47.062Z,35.00
2018-05-12T08:56:48.140Z,28.15
2018-05-12T08:57:49.207Z,30.77
2018-05-12T08:58:50.286Z,25.73
2018-05-12T08:59:52.099Z,32.65
2018-05-12T09:00:53.253Z,31.90
2018-05-12T09:01:54.424Z,27.83
2018-05-12T09:02:56.505Z,26.35
2018-05-12T09:03:57.566Z,26.45
2018-05-12T09:04:58.855Z,29.48
2018-05-12T09:05:59.998Z,27.25
2018-05-12T09:07:01.173Z,27.98
2018-05-12T09:08:02.315Z,29.42
2018-05-12T09:09:03.392Z,25.83
2018-05-12T09:10:04.626Z,30.45
2018-05-12T09:11:05.988Z,31.40
2018-05-12T09:12:07.047Z,23.95
2018-05-12T09:13:08.774Z,36.80
2018-05-12T09:14:09.982Z,30.20
2018-05-12T09:15:18.100Z,27.67
2018-05-12T09:16:19.259Z,28.85
2018-05-12T09:17:21.164Z,30.23
2018-05-12T09:18:22.452Z,33.42
2018-05-12T09:19:23.841Z,31.77
2018-05-12T09:20:25.931Z,29.55
2018-05-12T09:21:27.058Z,23.92
2018-05-12T09:22:28.349Z,24.87
2018-05-12T09:23:29.637Z,21.60
2018-05-12T09:24:31.471Z,28.05
2018-05-12T09:25:33.436Z,31.52
2018-05-12T09:26:34.483Z,23.70
2018-05-12T09:27:35.804Z,32.17
2018-05-12T09:28:37.083Z,27.98
2018-05-12T09:29:38.212Z,31.62
2018-05-12T09:30:39.385Z,29.40
2018-05-12T09:31:40.507Z,24.37
2018-05-12T09:32:41.590Z,24.55
2018-05-12T09:33:44.249Z,26.58
2018-05-12T09:34:45.471Z,24.60
2018-05-12T09:35:46.741Z,27.30
2018-05-12T09:36:47.836Z,24.77
2018-05-12T09:37:49.076Z,30.90
2018-05-12T09:38:51.075Z,28.90
2018-05-12T09:39:52.190Z,30.95
2018-05-12T09:40:53.341Z,29.58
2018-05-12T09:41:54.493Z,27.05
2018-05-12T09:42:55.714Z,25.50
2018-05-12T09:43:56.868Z,20.92
2018-05-12T09:44:58.835Z,27.98
2018-05-12T09:45:59.926Z,27.05
2018-05-12T09:47:00.971Z,23.87
2018-05-12T09:48:02.811Z,25.12
2018-05-12T09:49:04.619Z,22.67
2018-05-12T09:50:05.715Z,23.62
2018-05-12T09:51:06.794Z,19.73
2018-05-12T09:52:07.883Z,24.92
2018-05-12T09:53:08.954Z,25.98
2018-05-12T09:54:10.024Z,28.05
2018-05-12T09:55:11.157Z,32.92
2018-05-12T09:56:12.255Z,25.50
2018-05-12T09:57:13.323Z,26.25
2018-05-12T09:58:14.424Z,21.42
2018-05-12T09:59:15.499Z,26.48
2018-05-12T10:00:16.601Z,30.60
2018-05-12T10:01:18.436Z,30.10
2018-05-12T10:02:19.491Z,22.40
2018-05-12T10:03:20.569Z,26.92
2018-05-12T10:04:21.647Z,21.25
2018-05-12T10:05:23.467Z,21.40
2018-05-12T10:06:24.547Z,21.80
2018-05-12T10:07:25.630Z,18.98
2018-05-12T10:08:26.710Z,23.60
2018-05-12T10:09:28.540Z,29.12
2018-05-12T10:10:29.606Z,27.98
2018-05-12T10:11:30.675Z,31.85
2018-05-12T10:12:31.735Z,26.98
2018-05-12T10:13:32.835Z,24.12
2018-05-12T10:14:33.918Z,24.25
2018-05-12T10:15:35.827Z,21.17
2018-05-12T10:16:36.815Z,20.60
2018-05-12T10:17:37.887Z,25.62
2018-05-12T10:18:38.947Z,26.50
2018-05-12T10:19:40.019Z,23.27
2018-05-12T10:20:41.107Z,22.55
2018-05-12T10:21:42.178Z,23.52
2018-05-12T10:22:43.275Z,20.83
2018-05-12T10:23:44.336Z,26.80
2018-05-12T10:24:45.418Z,22.23
2018-05-12T10:25:46.537Z,18.02
2018-05-12T10:26:47.608Z,20.73
2018-05-12T10:27:48.686Z,18.50
2018-05-12T10:28:49.752Z,22.90
2018-05-12T10:29:50.827Z,19.70
2018-05-12T10:30:52.618Z,22.73
2018-05-12T10:31:53.687Z,20.58
2018-05-12T10:32:54.746Z,17.23
2018-05-12T10:33:56.568Z,15.60
2018-05-12T10:34:57.631Z,18.23
2018-05-12T10:35:58.690Z,20.40
2018-05-12T10:36:59.759Z,17.40
2018-05-12T10:38:00.833Z,18.87
2018-05-12T10:39:01.958Z,18.73
2018-05-12T10:40:03.047Z,15.43
2018-05-12T10:41:04.127Z,16.85
2018-05-12T10:42:05.183Z,21.25
2018-05-12T10:43:06.259Z,19.75
2018-05-12T10:44:07.326Z,16.20
2018-05-12T10:45:08.387Z,14.60
2018-05-12T10:46:09.437Z,18.42
2018-05-12T10:47:10.508Z,13.48
2018-05-12T10:48:11.615Z,17.75
2018-05-12T10:49:13.415Z,12.32
2018-05-12T10:50:14.493Z,11.23
2018-05-12T10:51:15.541Z,13.98
2018-05-12T10:52:17.338Z,11.12
2018-05-12T10:53:18.419Z,12.02
2018-05-12T10:54:19.643Z,16.08
2018-05-12T10:55:20.893Z,16.00
2018-05-12T10:56:22.777Z,15.55
2018-05-12T10:57:23.991Z,15.73
2018-05-12T10:58:25.208Z,18.92
2018-05-12T10:59:26.334Z,17.00
2018-05-12T11:00:27.412Z,16.67
2018-05-12T11:01:28.597Z,20.95
2018-05-12T11:02:32.312Z,16.20
2018-05-12T11:03:34.669Z,18.73
2018-05-12T11:04:35.989Z,17.80
2018-05-12T11:05:37.987Z,20.48
2018-05-12T11:06:39.253Z,18.70
2018-05-12T11:07:40.495Z,22.45
2018-05-12T11:08:41.582Z,15.75
2018-05-12T11:09:42.773Z,18.10
2018-05-12T11:10:43.983Z,14.95
2018-05-12T11:11:45.684Z,20.12
2018-05-12T11:12:46.844Z,18.37
2018-05-12T11:13:48.164Z,20.10
2018-05-12T11:14:50.114Z,18.08
2018-05-12T11:15:52.126Z,17.20
2018-05-12T11:16:53.306Z,17.10
2018-05-12T11:17:54.433Z,14.00
2018-05-12T11:18:55.499Z,17.10
2018-05-12T11:19:56.596Z,14.02
2018-05-12T11:20:57.693Z,18.98
2018-05-12T11:21:58.884Z,14.75
2018-05-12T11:22:59.848Z,15.75
2018-05-12T11:24:00.938Z,14.98
2018-05-12T11:25:02.783Z,15.40
2018-05-12T11:26:03.851Z,16.08
2018-05-12T11:27:04.915Z,14.87
2018-05-12T11:28:05.975Z,15.70
2018-05-12T11:29:07.089Z,15.60
2018-05-12T11:30:08.163Z,11.88
2018-05-12T11:31:09.264Z,15.70
2018-05-12T11:32:10.423Z,12.70
2018-05-12T11:33:11.436Z,13.48
2018-05-12T11:34:13.246Z,15.07
2018-05-12T11:35:14.301Z,14.52
2018-05-12T11:36:15.372Z,14.57
2018-05-12T11:37:16.452Z,18.58
2018-05-12T11:38:17.514Z,12.75
2018-05-12T11:39:18.579Z,13.95
2018-05-12T11:40:19.634Z,11.80
2018-05-12T11:41:20.693Z,11.57
2018-05-12T11:42:21.754Z,13.15
2018-05-12T11:43:22.806Z,13.40
2018-05-12T11:44:23.907Z,12.20
2018-05-12T11:45:25.728Z,13.57
2018-05-12T11:46:27.556Z,13.07
2018-05-12T11:47:28.616Z,15.02
2018-05-12T11:48:29.663Z,9.32
2018-05-12T11:49:31.471Z,13.30
2018-05-12T11:50:32.567Z,11.50
2018-05-12T11:51:33.638Z,11.65
2018-05-12T11:52:34.713Z,11.55
2018-05-12T11:53:35.767Z,12.85
2018-05-12T11:54:36.828Z,12.10
2018-05-12T11:55:37.906Z,14.20
2018-05-12T11:56:39.713Z,9.85
2018-05-12T11:57:40.795Z,10.40
2018-05-12T11:58:42.574Z,10.45
2018-05-12T11:59:43.631Z,12.73
2018-05-12T12:00:44.709Z,9.32
2018-05-12T12:01:46.514Z,12.32
2018-05-12T12:02:48.358Z,11.93
2018-05-12T12:03:49.505Z,14.52
2018-05-12T12:04:50.515Z,13.05
2018-05-12T12:05:51.599Z,11.95
2018-05-12T12:06:53.414Z,15.15
2018-05-12T12:07:54.487Z,13.60
2018-05-12T12:08:56.274Z,12.75
2018-05-12T12:09:57.331Z,10.75
2018-05-12T12:10:58.446Z,11.15
2018-05-12T12:11:59.517Z,11.43
2018-05-12T12:13:00.585Z,11.38
2018-05-12T12:14:01.656Z,9.68
2018-05-12T12:15:02.720Z,12.30
2018-05-12T12:16:03.790Z,9.05
2018-05-12T12:17:04.876Z,13.45
2018-05-12T12:18:05.951Z,11.82
2018-05-12T12:19:06.999Z,10.82
2018-05-12T12:20:08.088Z,12.45
2018-05-12T12:21:09.179Z,8.65
2018-05-12T12:22:10.297Z,12.07
2018-05-12T12:23:11.386Z,9.65
2018-05-12T12:24:12.449Z,14.02
2018-05-12T12:25:13.520Z,10.95
2018-05-12T12:26:14.589Z,11.98
2018-05-12T12:27:15.658Z,11.23
2018-05-12T12:28:16.739Z,12.00
2018-05-12T12:29:17.827Z,11.10
2018-05-12T12:30:18.887Z,9.52
2018-05-12T12:31:19.957Z,11.18
2018-05-12T12:32:21.071Z,10.57
2018-05-12T12:33:22.200Z,13.88
2018-05-12T12:34:23.199Z,10.98
2018-05-12T12:35:24.272Z,13.30
2018-05-12T12:36:25.351Z,9.48
2018-05-12T12:37:26.439Z,12.05
2018-05-12T12:38:27.507Z,9.65
2018-05-12T12:39:28.563Z,11.80
2018-05-12T12:40:29.631Z,11.00
2018-05-12T12:41:31.458Z,12.30
2018-05-12T12:42:32.535Z,10.00
2018-05-12T12:43:33.611Z,13.20
2018-05-12T12:44:34.687Z,9.15
2018-05-12T12:45:35.753Z,11.60
2018-05-12T12:46:36.848Z,10.30
2018-05-12T12:47:37.918Z,11.05
2018-05-12T12:48:39.000Z,9.77
2018-05-12T12:49:40.800Z,11.98
2018-05-12T12:50:41.871Z,11.77
2018-05-12T12:51:43.700Z,11.80
2018-05-12T12:52:44.766Z,11.63
2018-05-12T12:53:45.858Z,10.82
2018-05-12T12:54:46.944Z,14.15
2018-05-12T12:55:48.044Z,10.18
2018-05-12T12:56:49.120Z,10.63
2018-05-12T12:57:50.184Z,11.15
2018-05-12T12:58:51.268Z,10.80
2018-05-12T12:59:52.356Z,9.48
2018-05-12T13:00:53.442Z,10.63
2018-05-12T13:01:54.511Z,10.55
2018-05-12T13:02:55.580Z,10.80
2018-05-12T13:03:56.630Z,11.65
2018-05-12T13:04:58.435Z,11.55
2018-05-12T13:05:59.519Z,11.75
2018-05-12T13:07:00.579Z,11.12
2018-05-12T13:08:01.647Z,12.63
2018-05-12T13:09:04.481Z,12.07
2018-05-12T13:10:05.547Z,11.38
2018-05-12T13:11:06.612Z,13.20